Time;durP1;ratioP1;P1;durP2;ratioP2;P2;SDS_P1;SDS_P2;PMS_P1;PMS_P2;Temp;Humidity;BMP_temperature;BMP_pressure;BME280_temperature;BME280_humidity;BME280_pressure;Samples;Min_cycle;Max_cycle;Signal;HPM_P1;HPM_P2
2024/01/04 00:00:15;;;;;;;477.88;446.58;;;6.10;99.90;;;;;;5045569;28;20037;-83
2024/01/04 00:02:43;;;;;;;470.67;439.15;;;6.00;99.90;;;;;;5046033;28;20052;-83
2024/01/04 00:05:09;;;;;;;434.45;406.25;;;6.00;99.90;;;;;;5070617;28;20118;-83
2024/01/04 00:07:34;;;;;;;418.20;391.80;;;6.00;99.90;;;;;;5031179;28;20045;-83
2024/01/04 00:10:00;;;;;;;463.80;432.35;;;6.00;99.90;;;;;;5045414;28;20126;-83
2024/01/04 00:12:26;;;;;;;382.10;358.75;;;5.90;99.90;;;;;;5045090;28;20044;-83
2024/01/04 00:14:51;;;;;;;328.58;308.70;;;5.90;99.90;;;;;;5045377;28;20056;-82
2024/01/04 00:17:17;;;;;;;351.55;330.08;;;5.90;99.90;;;;;;5044702;28;20136;-83
2024/01/04 00:19:43;;;;;;;341.55;321.05;;;5.90;99.90;;;;;;5045007;28;20091;-83
2024/01/04 00:22:09;;;;;;;326.60;307.20;;;5.90;99.90;;;;;;5061435;28;20052;-83
2024/01/04 00:24:34;;;;;;;307.60;289.40;;;5.90;99.90;;;;;;5031375;28;20061;-83
2024/01/04 00:27:00;;;;;;;324.63;305.10;;;5.90;99.90;;;;;;5083053;28;20108;-83
2024/01/04 00:29:26;;;;;;;355.65;333.42;;;5.90;99.90;;;;;;5038313;28;20136;-83
2024/01/04 00:31:53;;;;;;;409.23;383.27;;;5.90;99.90;;;;;;5037653;28;20033;-83
2024/01/04 00:34:19;;;;;;;371.38;348.70;;;5.80;99.90;;;;;;5048900;28;20057;-82
2024/01/04 00:36:45;;;;;;;397.90;372.65;;;5.90;99.90;;;;;;5064407;28;20122;-83
2024/01/04 00:39:10;;;;;;;336.50;316.27;;;5.80;99.90;;;;;;5048342;28;20072;-82
2024/01/04 00:41:36;;;;;;;370.88;347.83;;;5.80;99.90;;;;;;5049061;28;20463;-82
2024/01/04 00:44:02;;;;;;;337.20;316.85;;;5.80;99.90;;;;;;5082774;28;20052;-83
2024/01/04 00:46:27;;;;;;;280.60;264.02;;;5.80;99.90;;;;;;5031568;28;20045;-83
2024/01/04 00:48:53;;;;;;;315.38;296.30;;;5.80;99.90;;;;;;5036385;28;20040;-83
2024/01/04 00:51:19;;;;;;;272.02;256.10;;;5.80;99.90;;;;;;5047753;28;20122;-82
2024/01/04 00:53:44;;;;;;;368.73;345.92;;;5.80;99.90;;;;;;5050098;28;20044;-82
2024/01/04 00:56:10;;;;;;;276.67;260.38;;;5.80;99.90;;;;;;5050134;28;20080;-83
2024/01/04 00:58:36;;;;;;;277.13;261.15;;;5.70;99.90;;;;;;5045688;28;20382;-82
2024/01/04 01:01:03;;;;;;;329.15;308.88;;;5.70;99.90;;;;;;5046242;28;20455;-82
2024/01/04 01:03:29;;;;;;;305.30;287.02;;;5.70;99.90;;;;;;5048430;28;20114;-83
2024/01/04 01:05:56;;;;;;;276.70;260.35;;;5.70;99.90;;;;;;5048412;28;20045;-82
2024/01/04 01:08:22;;;;;;;342.20;321.48;;;5.70;99.90;;;;;;5047512;28;20049;-82
2024/01/04 01:10:47;;;;;;;295.00;276.92;;;5.60;99.90;;;;;;5081964;28;20044;-83
2024/01/04 01:13:20;;;;;;;359.63;336.00;;;5.60;99.90;;;;;;5081452;28;20110;-82
2024/01/04 01:15:46;;;;;;;252.87;238.30;;;5.60;99.90;;;;;;5048411;28;20052;-83
2024/01/04 01:18:12;;;;;;;199.73;187.95;;;5.60;99.90;;;;;;5048112;28;20049;-84
2024/01/04 01:20:37;;;;;;;209.25;196.88;;;5.60;99.90;;;;;;5047846;28;20098;-83
2024/01/04 01:23:03;;;;;;;228.20;214.77;;;5.60;99.90;;;;;;5048228;28;20052;-83
2024/01/04 01:25:29;;;;;;;209.50;197.02;;;5.60;99.90;;;;;;5047441;28;20449;-83
2024/01/04 01:27:55;;;;;;;339.17;313.63;;;5.60;99.90;;;;;;5048139;28;20045;-83
2024/01/04 01:30:20;;;;;;;211.98;199.35;;;5.60;99.90;;;;;;5031605;28;20527;-83
2024/01/04 01:32:46;;;;;;;256.02;240.68;;;5.50;99.90;;;;;;5034594;28;20061;-82
2024/01/04 01:35:13;;;;;;;262.20;246.18;;;5.50;99.90;;;;;;5039459;28;20106;-83
2024/01/04 01:37:39;;;;;;;267.25;251.27;;;5.40;99.90;;;;;;5046668;28;20044;-83
2024/01/04 01:40:07;;;;;;;296.55;278.98;;;5.40;99.90;;;;;;5032064;28;20049;-83
2024/01/04 01:42:32;;;;;;;318.90;299.02;;;5.30;99.90;;;;;;5047064;28;20045;-83
2024/01/04 01:45:00;;;;;;;319.05;299.80;;;5.30;99.90;;;;;;5048211;28;20488;-82
2024/01/04 01:47:27;;;;;;;370.77;348.10;;;5.20;99.90;;;;;;5041563;28;20049;-83
2024/01/04 01:49:54;;;;;;;423.90;397.15;;;5.20;99.90;;;;;;5041123;28;20049;-82
2024/01/04 01:52:20;;;;;;;434.27;406.02;;;5.20;99.90;;;;;;5080759;28;20044;-82
2024/01/04 01:54:47;;;;;;;433.13;405.63;;;5.20;99.90;;;;;;5046665;28;20534;-82
2024/01/04 01:57:14;;;;;;;446.67;417.83;;;5.20;99.90;;;;;;5048033;28;20048;-83
2024/01/04 01:59:40;;;;;;;435.48;407.10;;;5.20;99.90;;;;;;5047361;28;20610;-82
2024/01/04 02:02:07;;;;;;;357.73;335.63;;;5.10;99.90;;;;;;5035445;28;20144;-82
2024/01/04 02:04:33;;;;;;;370.60;347.83;;;5.10;99.90;;;;;;5031363;28;20049;-83
2024/01/04 02:06:59;;;;;;;341.13;320.52;;;5.00;99.90;;;;;;5030696;28;20190;-83
2024/01/04 02:09:25;;;;;;;423.38;392.80;;;5.00;99.90;;;;;;5048602;28;20055;-82
2024/01/04 02:11:51;;;;;;;355.30;333.70;;;4.90;99.90;;;;;;5048600;28;20048;-82
2024/01/04 02:14:17;;;;;;;398.90;373.73;;;4.90;99.90;;;;;;5064477;28;20346;-83
2024/01/04 02:16:43;;;;;;;482.15;449.80;;;4.80;99.90;;;;;;5033430;28;20041;-83
2024/01/04 02:19:09;;;;;;;490.85;458.23;;;4.80;99.90;;;;;;5047051;28;20052;-83
2024/01/04 02:21:37;;;;;;;569.47;529.40;;;4.70;99.90;;;;;;5046649;28;20049;-83
2024/01/04 02:24:04;;;;;;;550.42;511.92;;;4.70;99.90;;;;;;5080431;28;20127;-83
2024/01/04 02:26:30;;;;;;;467.67;437.02;;;4.70;99.90;;;;;;5047029;28;20041;-82
2024/01/04 02:28:56;;;;;;;599.03;556.55;;;4.80;99.90;;;;;;5016345;28;20516;-82
2024/01/04 02:31:22;;;;;;;652.05;601.97;;;4.70;99.90;;;;;;5037520;28;20049;-83
2024/01/04 02:33:47;;;;;;;568.22;527.85;;;4.70;99.90;;;;;;5036041;28;20041;-83
2024/01/04 02:36:13;;;;;;;607.40;563.50;;;4.80;99.90;;;;;;5045326;28;20126;-82
2024/01/04 02:38:39;;;;;;;561.15;521.40;;;4.80;99.90;;;;;;5046308;28;20044;-82
2024/01/04 02:41:04;;;;;;;594.72;552.78;;;4.80;99.90;;;;;;5046745;28;20186;-83
2024/01/04 02:43:30;;;;;;;513.20;479.10;;;4.70;99.90;;;;;;5035627;28;20056;-83
2024/01/04 02:45:55;;;;;;;581.90;541.38;;;4.80;99.90;;;;;;5027181;28;20053;-82
2024/01/04 02:48:21;;;;;;;506.70;472.77;;;4.80;99.90;;;;;;5030138;28;20045;-83
2024/01/04 02:50:47;;;;;;;583.08;542.05;;;4.70;99.90;;;;;;5046843;28;20037;-82
2024/01/04 02:53:13;;;;;;;533.17;496.23;;;4.70;99.90;;;;;;5045315;28;20057;-82
2024/01/04 02:55:38;;;;;;;609.72;566.17;;;4.60;99.90;;;;;;5030331;28;20380;-82
2024/01/04 02:58:04;;;;;;;563.97;524.63;;;4.60;99.90;;;;;;5046504;28;20128;-82
2024/01/04 03:00:30;;;;;;;552.97;514.45;;;4.60;99.90;;;;;;5046380;28;20071;-82
2024/01/04 03:02:56;;;;;;;564.50;525.47;;;4.60;99.90;;;;;;5047369;28;20485;-82
2024/01/04 03:05:21;;;;;;;498.48;465.55;;;4.60;99.90;;;;;;5047219;28;20156;-83
2024/01/04 03:07:48;;;;;;;520.72;485.63;;;4.60;99.90;;;;;;5046645;28;20041;-82
2024/01/04 03:10:14;;;;;;;497.75;464.83;;;4.60;99.90;;;;;;5048324;28;20045;-82
2024/01/04 03:12:39;;;;;;;504.92;471.30;;;4.50;99.90;;;;;;5047361;28;20170;-82
2024/01/04 03:15:07;;;;;;;455.13;425.63;;;4.50;99.90;;;;;;5047059;28;20549;-82
2024/01/04 03:17:33;;;;;;;479.17;447.00;;;4.60;99.90;;;;;;5045771;28;20120;-82
2024/01/04 03:19:59;;;;;;;495.17;461.85;;;4.50;99.90;;;;;;5046117;28;20116;-82
2024/01/04 03:22:25;;;;;;;491.83;459.08;;;4.60;99.90;;;;;;5045640;28;20047;-82
2024/01/04 03:24:50;;;;;;;527.28;490.77;;;4.50;99.90;;;;;;5046162;28;20049;-82
2024/01/04 03:27:16;;;;;;;493.65;461.05;;;4.50;99.90;;;;;;5037800;28;20056;-82
2024/01/04 03:29:42;;;;;;;510.85;477.30;;;4.50;99.90;;;;;;5035108;28;20485;-82
2024/01/04 03:32:08;;;;;;;470.88;440.15;;;4.40;99.90;;;;;;5046339;28;20095;-82
2024/01/04 03:34:34;;;;;;;455.55;426.02;;;4.40;99.90;;;;;;5045561;28;20645;-82
2024/01/04 03:37:00;;;;;;;440.38;412.42;;;4.40;99.90;;;;;;5045429;28;20095;-82
2024/01/04 03:39:26;;;;;;;411.65;385.77;;;4.40;99.90;;;;;;5029170;28;20641;-82
2024/01/04 03:41:51;;;;;;;499.88;466.50;;;4.30;99.90;;;;;;5046535;28;20055;-82
2024/01/04 03:44:17;;;;;;;465.42;434.80;;;4.40;99.90;;;;;;5047600;28;20613;-82
2024/01/04 03:46:43;;;;;;;453.25;423.75;;;4.30;99.90;;;;;;5028720;28;20041;-82
2024/01/04 03:49:09;;;;;;;492.23;459.02;;;4.60;99.90;;;;;;5033789;28;20048;-82
2024/01/04 03:51:35;;;;;;;453.02;423.92;;;4.70;99.90;;;;;;5033136;28;20554;-82
2024/01/04 03:54:00;;;;;;;464.85;434.75;;;4.60;99.90;;;;;;5044526;28;20056;-82
2024/01/04 03:56:26;;;;;;;488.75;456.55;;;4.30;99.90;;;;;;5037790;28;20495;-82
2024/01/04 03:58:52;;;;;;;506.10;472.25;;;4.30;99.90;;;;;;5045181;28;20048;-82
2024/01/04 04:01:17;;;;;;;500.70;467.30;;;4.50;99.90;;;;;;5045207;28;20045;-82
2024/01/04 04:03:43;;;;;;;556.38;517.65;;;4.30;99.90;;;;;;5044898;28;20134;-82
2024/01/04 04:06:09;;;;;;;528.13;492.30;;;4.60;99.90;;;;;;5027993;28;20144;-82
2024/01/04 04:08:35;;;;;;;532.67;496.92;;;4.40;99.90;;;;;;5044638;28;20041;-82
2024/01/04 04:11:01;;;;;;;542.75;505.58;;;4.30;99.90;;;;;;5047359;28;20041;-82
2024/01/04 04:13:26;;;;;;;473.80;443.10;;;4.30;99.90;;;;;;5044721;28;20075;-82
2024/01/04 04:15:52;;;;;;;532.33;496.17;;;4.30;99.90;;;;;;5045418;28;20122;-83
2024/01/04 04:18:17;;;;;;;564.88;525.85;;;4.30;99.90;;;;;;5044763;28;20060;-82
2024/01/04 04:20:43;;;;;;;480.38;449.02;;;4.40;99.90;;;;;;5045457;28;20059;-82
2024/01/04 04:23:09;;;;;;;516.10;481.38;;;4.70;99.90;;;;;;5043929;28;20159;-82
2024/01/04 04:25:36;;;;;;;490.35;458.45;;;4.30;99.90;;;;;;5046424;28;20055;-82
2024/01/04 04:28:02;;;;;;;489.75;457.35;;;4.30;99.90;;;;;;5045609;28;20052;-82
2024/01/04 04:30:29;;;;;;;445.27;417.05;;;4.30;99.90;;;;;;5044008;28;20452;-82
2024/01/04 04:32:55;;;;;;;444.02;414.83;;;4.30;99.90;;;;;;5032420;28;20085;-81
2024/01/04 04:35:21;;;;;;;425.90;398.30;;;4.60;99.90;;;;;;5040113;28;20087;-82
2024/01/04 04:37:47;;;;;;;305.45;287.33;;;4.30;99.90;;;;;;5043299;28;20045;-82
2024/01/04 04:40:13;;;;;;;288.95;271.60;;;4.70;99.90;;;;;;5045381;28;20485;-82
2024/01/04 04:42:38;;;;;;;268.17;252.55;;;4.30;99.90;;;;;;5044840;28;20049;-82
2024/01/04 04:45:05;;;;;;;271.73;255.75;;;4.20;99.90;;;;;;5038963;28;20474;-82
2024/01/04 04:47:30;;;;;;;281.85;265.40;;;4.30;99.90;;;;;;5024975;28;20489;-82
2024/01/04 04:49:56;;;;;;;341.80;321.15;;;4.30;99.90;;;;;;5039047;28;20118;-82
2024/01/04 04:52:22;;;;;;;372.33;349.50;;;4.30;99.90;;;;;;5043810;28;20052;-81
2024/01/04 04:54:48;;;;;;;360.55;338.48;;;4.30;99.90;;;;;;5046181;28;20102;-82
2024/01/04 04:57:14;;;;;;;395.00;370.58;;;4.30;99.90;;;;;;5045130;28;20377;-82
2024/01/04 04:59:39;;;;;;;479.55;448.50;;;4.30;99.90;;;;;;5044541;28;20045;-82
2024/01/04 05:02:05;;;;;;;407.85;382.38;;;4.30;99.90;;;;;;5029101;28;20665;-82
2024/01/04 05:04:31;;;;;;;415.65;389.38;;;4.50;99.90;;;;;;5039364;28;20049;-82
2024/01/04 05:06:56;;;;;;;417.95;390.33;;;4.50;99.90;;;;;;5043955;28;20079;-82
2024/01/04 05:09:22;;;;;;;384.92;361.35;;;4.30;99.90;;;;;;5046244;28;20120;-82
2024/01/04 05:11:48;;;;;;;341.77;321.13;;;4.30;99.90;;;;;;5049241;28;20037;-82
2024/01/04 05:14:13;;;;;;;352.95;331.45;;;4.30;99.90;;;;;;5048237;28;20396;-82
2024/01/04 05:16:39;;;;;;;355.95;334.23;;;4.30;99.90;;;;;;5048605;28;20114;-82
2024/01/04 05:19:10;;;;;;;383.95;360.17;;;4.30;99.90;;;;;;5033728;28;20084;-82
2024/01/04 05:21:35;;;;;;;380.48;356.73;;;4.30;99.90;;;;;;5048010;28;20056;-82
2024/01/04 05:24:01;;;;;;;384.50;360.95;;;4.50;99.90;;;;;;5048078;28;20045;-82
2024/01/04 05:26:27;;;;;;;377.23;353.48;;;4.20;99.90;;;;;;5048514;28;20383;-82
2024/01/04 05:28:53;;;;;;;346.10;325.17;;;4.20;99.90;;;;;;5044507;28;20408;-82
2024/01/04 05:31:19;;;;;;;329.98;310.02;;;4.20;99.90;;;;;;5047517;28;20037;-83
2024/01/04 05:33:46;;;;;;;340.35;319.85;;;4.20;99.90;;;;;;5047722;28;20399;-82
2024/01/04 05:36:12;;;;;;;305.85;288.02;;;4.20;99.90;;;;;;5046681;28;20044;-82
2024/01/04 05:38:38;;;;;;;281.48;265.00;;;4.10;99.90;;;;;;5048431;28;20503;-82
2024/01/04 05:41:04;;;;;;;319.58;300.58;;;4.10;99.90;;;;;;5047882;28;20068;-82
2024/01/04 05:43:33;;;;;;;270.05;254.68;;;4.10;99.90;;;;;;5047763;28;20077;-82
2024/01/04 05:46:01;;;;;;;259.92;245.27;;;4.00;99.90;;;;;;5048496;28;20101;-82
2024/01/04 05:48:27;;;;;;;293.13;276.02;;;4.00;99.90;;;;;;5030407;28;20381;-82
2024/01/04 05:50:53;;;;;;;272.15;256.10;;;4.00;99.90;;;;;;5048517;28;20600;-82
2024/01/04 05:53:19;;;;;;;274.67;258.50;;;4.00;99.90;;;;;;5046494;28;20049;-82
2024/01/04 05:55:44;;;;;;;331.10;311.35;;;3.90;99.90;;;;;;5047238;28;20119;-82
2024/01/04 05:58:10;;;;;;;322.23;303.25;;;3.90;99.90;;;;;;5047783;28;20052;-82
2024/01/04 06:00:36;;;;;;;289.63;273.00;;;3.80;99.90;;;;;;5047674;28;20052;-82
2024/01/04 06:03:01;;;;;;;339.77;319.42;;;3.80;99.90;;;;;;5047340;28;20127;-82
2024/01/04 06:05:27;;;;;;;322.52;303.20;;;3.90;99.90;;;;;;5044333;28;20041;-82
2024/01/04 06:07:53;;;;;;;314.45;295.20;;;4.20;99.90;;;;;;5028384;28;20053;-82
2024/01/04 06:10:19;;;;;;;319.08;299.95;;;3.70;99.90;;;;;;5062171;28;20422;-82
2024/01/04 06:12:44;;;;;;;380.23;356.70;;;3.60;99.90;;;;;;5038063;28;20045;-82
2024/01/04 06:15:10;;;;;;;365.55;343.05;;;3.50;99.90;;;;;;5048659;28;20075;-82
2024/01/04 06:17:36;;;;;;;329.48;309.85;;;3.50;99.90;;;;;;5048999;28;20045;-82
2024/01/04 06:20:02;;;;;;;348.65;327.73;;;3.50;99.90;;;;;;5081481;28;20385;-82
2024/01/04 06:22:28;;;;;;;291.40;274.25;;;3.40;99.90;;;;;;5044733;28;20134;-82
2024/01/04 06:24:54;;;;;;;279.20;262.75;;;3.40;99.90;;;;;;5047185;28;20114;-82
2024/01/04 06:27:19;;;;;;;279.67;263.42;;;3.30;99.90;;;;;;5046975;28;20049;-81
2024/01/04 06:29:45;;;;;;;326.33;307.17;;;3.70;99.90;;;;;;5079847;28;20426;-82
2024/01/04 06:32:11;;;;;;;299.75;282.33;;;3.20;99.90;;;;;;5080966;28;20128;-82
2024/01/04 06:34:36;;;;;;;336.05;316.08;;;3.30;99.90;;;;;;5034492;28;20207;-82
2024/01/04 06:37:03;;;;;;;324.50;305.15;;;3.10;99.90;;;;;;5038674;28;20069;-83
2024/01/04 06:39:28;;;;;;;367.45;345.42;;;3.20;99.90;;;;;;5040834;28;20237;-82
2024/01/04 06:41:54;;;;;;;345.52;324.50;;;3.20;99.90;;;;;;5048670;28;20875;-82
2024/01/04 06:44:20;;;;;;;392.45;368.17;;;3.20;99.90;;;;;;5046380;28;20057;-82
2024/01/04 06:46:46;;;;;;;396.67;372.38;;;3.20;99.90;;;;;;5048040;28;20291;-82
2024/01/04 06:49:11;;;;;;;373.17;349.67;;;3.30;99.90;;;;;;5043418;28;20485;-82
2024/01/04 06:51:37;;;;;;;438.60;410.27;;;3.20;99.90;;;;;;5042067;28;20044;-82
2024/01/04 06:54:03;;;;;;;442.98;414.42;;;3.30;99.90;;;;;;5033866;28;20042;-82
2024/01/04 06:56:29;;;;;;;439.08;410.92;;;3.50;99.90;;;;;;5033185;28;20048;-82
2024/01/04 06:58:55;;;;;;;436.23;408.48;;;3.30;99.90;;;;;;5030084;28;20055;-83
2024/01/04 07:01:21;;;;;;;410.50;384.83;;;3.20;99.90;;;;;;5046017;28;20131;-82
2024/01/04 07:03:47;;;;;;;370.95;347.98;;;3.20;99.90;;;;;;5030251;28;20048;-82
2024/01/04 07:06:13;;;;;;;356.60;334.73;;;3.20;99.90;;;;;;5044628;28;20481;-82
2024/01/04 07:08:39;;;;;;;371.63;349.10;;;3.10;99.90;;;;;;5047193;28;20049;-83
2024/01/04 07:11:05;;;;;;;439.75;412.42;;;3.10;99.90;;;;;;5046871;28;20128;-82
2024/01/04 07:13:33;;;;;;;441.92;413.70;;;3.10;99.90;;;;;;5044996;28;20554;-83
2024/01/04 07:16:02;;;;;;;406.67;381.58;;;3.10;99.90;;;;;;5046123;28;20048;-82
2024/01/04 07:18:28;;;;;;;422.35;395.98;;;3.10;99.90;;;;;;5044603;28;20064;-82
2024/01/04 07:20:53;;;;;;;400.50;375.60;;;3.50;99.90;;;;;;5046560;28;20045;-82
2024/01/04 07:23:20;;;;;;;395.38;371.05;;;3.10;99.90;;;;;;5043706;28;20084;-82
2024/01/04 07:25:45;;;;;;;461.08;431.23;;;3.80;99.90;;;;;;5033630;28;20458;-82
2024/01/04 07:28:11;;;;;;;380.38;356.80;;;3.30;99.90;;;;;;5045252;28;20393;-82
2024/01/04 07:30:38;;;;;;;367.33;345.02;;;3.60;99.90;;;;;;5045264;28;20583;-82
2024/01/04 07:33:05;;;;;;;361.95;340.02;;;3.60;99.90;;;;;;5077859;28;20132;-80
2024/01/04 07:35:31;;;;;;;384.02;360.58;;;3.20;99.90;;;;;;5042806;28;20119;-81
2024/01/04 07:37:58;;;;;;;370.08;347.27;;;3.20;99.90;;;;;;5046284;28;20734;-81
2024/01/04 07:40:24;;;;;;;388.05;364.23;;;3.10;99.90;;;;;;5044815;28;20443;-82
2024/01/04 07:42:50;;;;;;;406.65;380.77;;;3.20;99.90;;;;;;5044536;28;20056;-81
2024/01/04 07:45:16;;;;;;;373.83;350.73;;;3.10;99.90;;;;;;5044486;28;20102;-81
2024/01/04 07:47:41;;;;;;;408.00;382.80;;;3.10;99.90;;;;;;5024002;28;20041;-81
2024/01/04 07:50:08;;;;;;;418.52;392.15;;;3.10;99.90;;;;;;5041896;28;20045;-81
2024/01/04 07:52:33;;;;;;;411.13;385.58;;;3.10;99.90;;;;;;5044103;28;20040;-82
2024/01/04 07:54:59;;;;;;;374.45;351.02;;;3.40;99.90;;;;;;5044252;28;20037;-80
2024/01/04 07:57:25;;;;;;;401.20;376.15;;;3.10;99.90;;;;;;5044212;28;20048;-82
2024/01/04 07:59:51;;;;;;;347.70;325.75;;;3.10;99.90;;;;;;5044532;28;20152;-82
2024/01/04 08:02:17;;;;;;;363.75;341.40;;;3.10;99.90;;;;;;5044167;28;20053;-83
2024/01/04 08:04:43;;;;;;;387.30;362.95;;;3.10;99.90;;;;;;5043201;28;20047;-83
2024/01/04 08:07:09;;;;;;;374.50;351.50;;;3.00;99.90;;;;;;5043791;28;20040;-82
2024/01/04 08:09:34;;;;;;;327.58;308.13;;;3.00;99.90;;;;;;5032770;28;20120;-83
2024/01/04 08:12:01;;;;;;;321.20;301.83;;;3.00;99.90;;;;;;5041058;28;20053;-83
2024/01/04 08:14:26;;;;;;;300.13;282.55;;;3.50;99.90;;;;;;5027157;28;20507;-83
2024/01/04 08:16:52;;;;;;;347.55;326.35;;;3.00;99.90;;;;;;5043919;28;20033;-83
2024/01/04 08:19:18;;;;;;;341.35;321.08;;;3.00;99.90;;;;;;5042848;28;20045;-82
2024/01/04 08:21:43;;;;;;;371.77;349.08;;;3.00;99.90;;;;;;5042500;28;20140;-83
2024/01/04 08:24:09;;;;;;;310.52;291.92;;;3.10;99.90;;;;;;5044131;28;20106;-83
2024/01/04 08:26:41;;;;;;;313.92;295.30;;;3.10;99.90;;;;;;5032522;28;20379;-82
2024/01/04 08:29:07;;;;;;;331.08;311.10;;;3.10;99.90;;;;;;5043038;28;20049;-83
2024/01/04 08:31:33;;;;;;;290.73;273.83;;;3.20;99.90;;;;;;5061179;28;20046;-83
2024/01/04 08:33:59;;;;;;;317.88;299.25;;;3.20;99.90;;;;;;5044157;28;20359;-82
2024/01/04 08:36:25;;;;;;;327.55;308.02;;;3.50;99.90;;;;;;5041872;28;20114;-82
2024/01/04 08:38:51;;;;;;;313.75;294.95;;;3.50;99.90;;;;;;5035150;28;20480;-83
2024/01/04 08:41:16;;;;;;;321.63;302.33;;;3.30;99.90;;;;;;5043521;28;20091;-83
2024/01/04 08:43:42;;;;;;;279.85;263.60;;;3.30;99.90;;;;;;5045436;28;20088;-83
2024/01/04 08:46:08;;;;;;;282.98;266.50;;;3.70;99.90;;;;;;5049837;28;20052;-83
2024/01/04 08:48:34;;;;;;;281.05;264.67;;;3.40;99.90;;;;;;5034881;28;20049;-83
2024/01/04 08:50:59;;;;;;;339.63;319.42;;;3.50;99.90;;;;;;5031065;28;20041;-82
2024/01/04 08:53:25;;;;;;;280.55;263.70;;;3.10;99.90;;;;;;5046779;28;20453;-83
2024/01/04 08:55:51;;;;;;;301.13;283.17;;;3.60;99.90;;;;;;5032020;28;20048;-82
2024/01/04 08:58:17;;;;;;;248.57;234.13;;;3.60;99.90;;;;;;5030714;28;20476;-83
2024/01/04 09:00:43;;;;;;;232.25;218.77;;;3.60;99.90;;;;;;5048884;28;20037;-83
2024/01/04 09:03:08;;;;;;;222.65;209.98;;;3.60;99.90;;;;;;5047995;28;20485;-82
2024/01/04 09:05:34;;;;;;;233.10;219.70;;;3.60;99.90;;;;;;5046946;28;20076;-82
2024/01/04 09:08:00;;;;;;;197.10;185.90;;;3.60;99.90;;;;;;5047054;28;20053;-82
2024/01/04 09:10:26;;;;;;;191.32;180.23;;;3.70;99.90;;;;;;5047877;28;20037;-82
2024/01/04 09:12:51;;;;;;;196.45;184.90;;;3.70;99.90;;;;;;5029896;28;20330;-82
2024/01/04 09:15:18;;;;;;;193.57;182.68;;;3.80;99.90;;;;;;5047783;28;20059;-82
2024/01/04 09:17:44;;;;;;;190.35;179.32;;;3.90;99.90;;;;;;5043367;28;20060;-81
2024/01/04 09:20:10;;;;;;;147.75;138.90;;;3.90;99.90;;;;;;5048715;28;20041;-81
2024/01/04 09:22:36;;;;;;;129.38;121.85;;;4.00;99.90;;;;;;5064143;28;20043;-81
2024/01/04 09:25:03;;;;;;;162.80;153.30;;;3.90;99.90;;;;;;5047526;28;20136;-82
2024/01/04 09:27:29;;;;;;;142.02;133.77;;;3.90;99.90;;;;;;5038416;28;20140;-81
2024/01/04 09:29:55;;;;;;;121.82;114.40;;;4.10;99.90;;;;;;5046049;28;20524;-82
2024/01/04 09:32:21;;;;;;;123.65;116.38;;;3.80;99.90;;;;;;5049001;28;20041;-81
2024/01/04 09:34:46;;;;;;;131.45;123.57;;;3.80;99.90;;;;;;5048151;28;20241;-81
2024/01/04 09:37:12;;;;;;;130.35;122.50;;;3.70;99.90;;;;;;5080780;28;20094;-82
2024/01/04 09:39:40;;;;;;;149.52;140.30;;;3.70;99.90;;;;;;5047495;28;20060;-81
2024/01/04 09:42:09;;;;;;;135.75;127.78;;;3.70;99.90;;;;;;5064320;28;20073;-81
2024/01/04 09:44:35;;;;;;;137.18;129.07;;;3.60;99.90;;;;;;5049687;28;20049;-81
2024/01/04 09:47:08;;;;;;;121.20;113.85;;;3.80;99.90;;;;;;5044092;28;20172;-81
2024/01/04 09:49:35;;;;;;;115.13;108.38;;;3.60;99.90;;;;;;5022319;28;20053;-81
2024/01/04 09:52:01;;;;;;;115.53;108.72;;;3.70;99.90;;;;;;5048435;28;20071;-81
2024/01/04 09:54:29;;;;;;;133.18;125.47;;;3.60;99.90;;;;;;5047699;28;20438;-81
2024/01/04 09:56:55;;;;;;;119.22;112.10;;;3.60;99.90;;;;;;5047492;28;20075;-81
2024/01/04 09:59:21;;;;;;;151.60;142.32;;;3.80;99.90;;;;;;5048116;28;20076;-82
2024/01/04 10:01:48;;;;;;;135.32;127.45;;;3.60;99.90;;;;;;5046618;28;20045;-81
2024/01/04 10:04:16;;;;;;;124.30;117.10;;;3.70;99.90;;;;;;5064430;28;20053;-81
2024/01/04 10:06:44;;;;;;;154.55;145.32;;;3.70;99.90;;;;;;5046678;28;20041;-82
2024/01/04 10:09:19;;;;;;;123.15;115.72;;;3.70;99.90;;;;;;5048635;28;20083;-81
2024/01/04 10:11:59;;;;;;;156.50;147.32;;;3.90;99.90;;;;;;5046993;28;20155;-81
2024/01/04 10:14:27;;;;;;;143.48;135.05;;;3.80;99.90;;;;;;5048362;28;20045;-81
2024/01/04 10:16:53;;;;;;;147.55;138.85;;;3.90;99.90;;;;;;5049653;28;20037;-81
2024/01/04 10:19:19;;;;;;;204.75;192.88;;;4.10;99.90;;;;;;5047580;28;20049;-81
2024/01/04 10:21:45;;;;;;;159.05;149.73;;;4.20;99.90;;;;;;5046211;28;20106;-81
2024/01/04 10:24:14;;;;;;;178.07;167.63;;;4.30;99.90;;;;;;5047287;28;20473;-81
2024/01/04 10:26:42;;;;;;;160.13;150.73;;;4.40;99.90;;;;;;5048484;28;20049;-81
2024/01/04 10:29:08;;;;;;;121.20;114.03;;;4.40;99.90;;;;;;5072405;28;20069;-81
2024/01/04 10:31:35;;;;;;;117.45;110.50;;;4.30;99.90;;;;;;5024943;28;20045;-81
2024/01/04 10:34:02;;;;;;;115.80;108.88;;;4.30;99.90;;;;;;5047640;28;20060;-81
2024/01/04 10:36:28;;;;;;;124.45;116.85;;;4.20;99.90;;;;;;5045198;28;20114;-81
2024/01/04 10:38:57;;;;;;;135.10;126.93;;;4.10;99.90;;;;;;5031239;28;20037;-81
2024/01/04 10:41:23;;;;;;;149.13;140.48;;;4.10;99.90;;;;;;5047089;28;20056;-81
2024/01/04 10:43:48;;;;;;;164.70;155.18;;;4.00;99.90;;;;;;5045977;28;20053;-81
2024/01/04 10:46:14;;;;;;;152.88;143.55;;;3.90;99.90;;;;;;5030870;28;20045;-81
2024/01/04 10:48:41;;;;;;;135.30;127.25;;;3.90;99.90;;;;;;5033207;28;20049;-81
2024/01/04 10:51:10;;;;;;;130.88;122.90;;;3.80;99.90;;;;;;5047447;28;20088;-81
2024/01/04 10:53:38;;;;;;;167.23;157.57;;;4.00;99.90;;;;;;5046896;28;20690;-81
2024/01/04 10:56:05;;;;;;;178.00;167.55;;;3.70;99.90;;;;;;5047438;28;20079;-80
2024/01/04 10:58:33;;;;;;;165.48;155.85;;;3.70;99.90;;;;;;5047305;28;20040;-81
2024/01/04 11:01:00;;;;;;;149.18;140.40;;;3.70;99.90;;;;;;5047195;28;20045;-80
2024/01/04 11:03:29;;;;;;;172.93;162.55;;;3.80;99.90;;;;;;5046003;28;20123;-80
2024/01/04 11:05:58;;;;;;;161.95;152.50;;;3.80;99.90;;;;;;5047146;28;20052;-80
2024/01/04 11:08:25;;;;;;;166.30;156.77;;;3.80;99.90;;;;;;5047059;28;20452;-81
2024/01/04 11:10:52;;;;;;;164.32;154.93;;;3.80;99.90;;;;;;5048034;28;20045;-80
2024/01/04 11:13:18;;;;;;;153.68;144.55;;;3.90;99.90;;;;;;5046698;28;20084;-80
2024/01/04 11:15:45;;;;;;;154.10;144.77;;;4.20;99.90;;;;;;5046479;28;20064;-81
2024/01/04 11:18:20;;;;;;;164.32;154.38;;;4.00;99.90;;;;;;5028821;28;20164;-81
2024/01/04 11:21:19;;;;;;;161.35;151.82;;;4.00;99.90;;;;;;5046496;28;20083;-81
2024/01/04 11:24:02;;;;;;;99.50;93.80;;;4.10;99.90;;;;;;5046461;28;20128;-81
2024/01/04 11:26:34;;;;;;;;;;;4.10;99.90;;;;;;5045042;28;20121;-81
2024/01/04 11:29:06;;;;;;;113.93;107.47;;;4.10;99.90;;;;;;5047055;28;20408;-81
2024/01/04 11:31:32;;;;;;;81.60;76.82;;;4.20;99.90;;;;;;5044809;28;20041;-81
2024/01/04 11:34:03;;;;;;;106.45;100.40;;;4.30;99.90;;;;;;5047133;28;20439;-81
2024/01/04 11:36:29;;;;;;;92.78;87.38;;;4.30;99.90;;;;;;5044425;28;20045;-81
2024/01/04 11:38:57;;;;;;;94.20;88.47;;;4.30;99.90;;;;;;5028935;28;20689;-81
2024/01/04 11:41:34;;;;;;;90.60;85.22;;;4.80;99.90;;;;;;5045473;28;20044;-80
2024/01/04 11:44:02;;;;;;;106.13;100.00;;;4.40;99.90;;;;;;5045781;28;20467;-81
2024/01/04 11:46:28;;;;;;;85.45;80.50;;;4.50;99.90;;;;;;5041488;28;20053;-80
2024/01/04 11:48:55;;;;;;;68.80;64.60;;;4.50;99.90;;;;;;5028138;28;20112;-81
2024/01/04 11:51:33;;;;;;;95.53;89.78;;;4.50;99.90;;;;;;5044166;28;20144;-80
2024/01/04 11:53:59;;;;;;;77.30;72.78;;;4.60;99.90;;;;;;5046360;28;20049;-80
2024/01/04 11:56:26;;;;;;;86.75;81.63;;;4.60;99.90;;;;;;5047033;28;20040;-80
2024/01/04 11:58:51;;;;;;;61.90;58.35;;;4.60;99.90;;;;;;5045953;28;20170;-81
2024/01/04 12:01:23;;;;;;;57.45;54.15;;;4.60;99.90;;;;;;5044734;28;20432;-81
2024/01/04 12:03:51;;;;;;;38.80;36.15;;;4.60;99.90;;;;;;5045455;28;20485;-81
2024/01/04 12:06:21;;;;;;;53.80;50.15;;;4.60;99.90;;;;;;5044663;28;20055;-80
2024/01/04 12:08:49;;;;;;;79.78;75.20;;;4.60;99.90;;;;;;5044626;28;20153;-81
2024/01/04 12:11:19;;;;;;;64.88;61.13;;;4.80;99.90;;;;;;5046915;28;20083;-81
2024/01/04 12:13:45;;;;;;;59.88;56.10;;;4.60;99.90;;;;;;5044521;28;20045;-81